Riverside, Utah
Current Conditions -  °F | °C
As of 2:51 AM on Tuesday 21 Oct 2014 (Local Time) from KLGU Reporting Station
Few Clouds Few Clouds  
Wind Chill: 45°   Ceiling: Unl
Heat Index: 49°   Visibility: 10mi
Dew Point: 39°   Wind: 8mph
Humidity: 69%   Direction: 290°WNW
Pressure: 29.88"   Gusts: NA
Location:  41.78°N, 112.14°W
Report Text: KLGU 210851Z AUTO 29007KT 10SM FEW120 09/04 A2988 RMK AO2 SLP079 T00940039 58006 TSNO
Loading
Personal Weather Stations






























Interactive Weather Map
Tropical Storm Tracking
New forecast layout! Learn more

10-Day Weather Forecast

Advertisements
Track Severe Weather on mobile